• Join FlightAware (Why Join?)
  • Login
  • US Flag 
07:45PM EDT


 

Airport Tracker/Info


-or-


 

Live Flight TrackerFlight Track Log ✈ N421CW ✈ 28-Jul-2013 ✈ 7M3 - KEFD

Flight Track Log - Related Links

Times and Time Zones

All times are in EDT time to prevent confusion due to time zone crossing. See the N421CW flight status page for this flight to view local times or setup timezone preferences in your user account.

Time Position Orientation Groundspeed Altitude Reporting Facility
EDT Latitude Longitude Course Direction KTS MPH feet Rate Location/Type
06:02PM 34.4758 -93.4811 195° South 152 175 3,700  Level Memphis Center
06:03PM 34.4422 -93.4975 202° Southwest 93 107 4,700 960 Climbing Memphis Center
06:04PM 34.4106 -93.5089 197° South 106 122 5,700 1,020 Climbing Memphis Center
06:05PM 34.3769 -93.5203 196° South 118 136 6,800 1,020 Climbing Memphis Center
06:06PM 34.3431 -93.5342 199° South 130 150 7,800 960 Climbing Memphis Center
06:07PM 34.3136 -93.5508 205° Southwest 130 150 8,800 1,080 Climbing Memphis Center
06:08PM 34.2152 -93.6390 195° South  Level Estimated
06:09PM 34.2728 -93.5608 191° South 129 148 10,100  Level Fort Worth Center
06:10PM 34.2419 -93.5747 200° South 129 148 11,200 1,020 Climbing Fort Worth Center
06:11PM 34.2067 -93.5839 192° South 129 148 12,200 960 Climbing Fort Worth Center
06:12PM 34.1739 -93.5978 199° South 129 148 13,200 960 Climbing Fort Worth Center
06:13PM 34.1367 -93.6122 198° South 129 148 14,200 960 Climbing Fort Worth Center
06:14PM 34.1017 -93.6236 195° South 129 148 15,200 960 Climbing Fort Worth Center
06:15PM 34.0644 -93.6378 197° South 129 148 16,200 900 Climbing Fort Worth Center
06:16PM 34.0250 -93.6494 194° South 140 161 17,100 900 Climbing Fort Worth Center
06:17PM 33.9881 -93.6636 198° South 140 161 18,000 900 Climbing Fort Worth Center
06:18PM 33.9508 -93.6778 198° South 146 168 18,900 840 Climbing Fort Worth Center
06:19PM 33.9117 -93.6919 197° South 146 168 19,700 840 Climbing Fort Worth Center
06:20PM 33.8725 -93.7061 197° South 146 168 20,600 840 Climbing Fort Worth Center
06:21PM 33.8331 -93.7203 197° South 146 168 21,400 600 Climbing Fort Worth Center
06:22PM 33.7878 -93.7347 195° South 146 168 21,900 300 Climbing Fort Worth Center
06:23PM 33.7381 -93.7542 198° South 170 196 22,000  Climbing Fort Worth Center
06:24PM 33.6906 -93.7689 194° South 186 214 21,900 -60 Descending Fort Worth Center
06:25PM 33.6369 -93.7883 197° South 199 229 21,900  Level Fort Worth Center
06:26PM 33.5811 -93.8083 197° South 204 235 21,900  Level Fort Worth Center
06:27PM 33.5253 -93.8281 196° South 204 235 21,900  Level Fort Worth Center
06:28PM 33.4694 -93.8453 194° South 204 235 21,900  Level Fort Worth Center
06:29PM 33.4136 -93.8647 196° South 204 235 21,900  Level Fort Worth Center
06:30PM 33.3539 -93.8897 199° South 216 249 21,900  Level Fort Worth Center
06:31PM 33.2981 -93.9092 196° South 216 249 21,900  Level Fort Worth Center
06:32PM 33.2319 -93.9292 194° South 224 258 21,900  Level Fort Worth Center
06:33PM 33.1761 -93.9489 196° South 219 252 21,900  Level Fort Worth Center
06:34PM 33.1203 -93.9708 198° South 219 252 21,900  Level Fort Worth Center
06:35PM 33.0625 -93.9903 196° South 219 252 21,900  Level Fort Worth Center
06:36PM 33.0044 -94.0100 196° South 219 252 21,900  Level Fort Worth Center
06:37PM 32.9467 -94.0294 196° South 219 252 21,900  Level Fort Worth Center
06:38PM 32.8908 -94.0489 196° South 219 252 21,900  Level Fort Worth Center
06:39PM 32.8328 -94.0683 196° South 219 252 21,900  Level Fort Worth Center
06:40PM 32.7747 -94.0878 196° South 219 252 21,900  Level Fort Worth Center
06:41PM 32.7192 -94.1097 198° South 219 252 21,900  Level Fort Worth Center
06:42PM 32.6611 -94.1289 196° South 219 252 21,900  Level Fort Worth Center
06:43PM 32.6031 -94.1483 196° South 219 252 21,900  Level Fort Worth Center
06:44PM 32.5453 -94.1678 196° South 219 252 21,900  Level Fort Worth Center
06:45PM 32.4894 -94.1869 196° South 219 252 21,900  Level Fort Worth Center
06:46PM 32.4314 -94.2064 196° South 219 252 21,900  Level Fort Worth Center
06:47PM 32.3736 -94.2281 198° South 224 258 21,900  Level Fort Worth Center
06:48PM 32.3175 -94.2447 194° South 224 258 21,900  Level Fort Worth Center
06:49PM 32.2597 -94.2664 198° South 224 258 21,900  Level Fort Worth Center
06:50PM 32.2039 -94.2881 198° South 224 258 21,900  Level Fort Worth Center
06:51PM 32.1458 -94.3097 198° South 224 258 21,900  Level Fort Worth Center
06:52PM 32.0900 -94.3311 198° South 224 258 21,900  Level Fort Worth Center
06:53PM 32.0319 -94.3478 194° South 224 258 21,900  Level Fort Worth Center
06:54PM 31.9761 -94.3692 198° South 224 258 21,900  Level Fort Worth Center
06:55PM 31.8708 -94.4031 195° South 214 246 21,900  Level Houston Center
06:57PM 31.8136 -94.4219 196° South 214 246 21,900  Level Houston Center
06:58PM 31.7569 -94.4417 196° South 212 244 21,900  Level Houston Center
06:59PM 31.7000 -94.4614 196° South 211 243 21,900  Level Houston Center
07:00PM 31.6283 -94.4625 181° South 213 245 21,900  Level Houston Center
07:01PM 31.5675 -94.4664 183° South 216 249 21,900  Level Houston Center
07:02PM 31.5050 -94.4686 182° South 222 255 21,900  Level Houston Center
07:03PM 31.4428 -94.4719 183° South 222 255 21,900  Level Houston Center
07:04PM 31.3814 -94.4739 182° South 220 253 21,900  Level Houston Center
07:05PM 31.3197 -94.4756 181° South 219 252 21,900 -360 Level Houston Center
07:06PM 31.2553 -94.4792 183° South 227 261 21,200 -780 Descending Houston Center
07:07PM 31.1878 -94.4828 183° South 236 272 20,400 -960 Descending Houston Center
07:08PM 31.1050 -94.4861 182° South 244 281 19,300 -1,260 Descending Houston Center
07:09PM 31.0328 -94.4900 183° South 255 293 17,900 -1,380 Descending Houston Center
07:10PM 30.9619 -94.4928 182° South 256 295 16,500 -1,500 Descending Houston Center
07:11PM 30.8928 -94.4956 182° South 249 287 14,900 -1,500 Descending Houston Center
07:12PM 30.8267 -94.4994 183° South 241 277 13,500 -1,440 Descending Houston Center
07:13PM 30.7628 -94.5014 181° South 233 268 12,000 -1,500 Descending Houston Center
07:14PM 30.6989 -94.5039 182° South 230 265 10,500 -1,500 Descending Houston Center
07:15PM 30.6358 -94.5067 182° South 228 262 9,000 -1,620 Descending Houston Center
07:16PM 30.5614 -94.5114 183° South 224 258 7,200 -1,320 Descending Houston Center
07:17PM 30.5022 -94.5194 187° South 216 249 6,300 -660 Descending Houston Center
07:18PM 30.4511 -94.5400 199° South 199 229 5,900 -240 Descending Houston Center
07:19PM 30.4083 -94.5681 209° Southwest 182 209 5,900 -300 Level Houston Center
07:20PM 30.3642 -94.5978 210° Southwest 182 209 5,300 -540 Descending Houston Center
07:21PM 30.3200 -94.6258 209° Southwest 182 209 4,900 -300 Descending Houston Center
07:22PM 30.2786 -94.6553 212° Southwest 177 204 4,800 -540 Descending Houston Center
07:23PM 30.2350 -94.6839 210° Southwest 178 205 3,800 -840 Descending Houston Center
07:24PM 30.1797 -94.7167 207° Southwest 185 213 3,100 -420 Descending Houston Center
07:25PM 30.1414 -94.7419 210° Southwest 167 192 3,000 -120 Descending Houston Center
07:26PM 30.1033 -94.7656 208° Southwest 157 181 2,900 -60 Descending Houston Center
07:27PM 30.0661 -94.7908 210° Southwest 154 177 2,900  Level Houston Center
07:28PM 30.0283 -94.8139 208° Southwest 155 178 2,900  Level Houston Center
07:29PM 29.9914 -94.8381 210° Southwest 153 176 2,900  Level Houston Center
07:30PM 29.9539 -94.8625 209° Southwest 151 174 2,900  Level Houston Center
07:32PM 29.9100 -94.8894 208° Southwest 152 175 2,900  Level Houston Center
07:33PM 29.8744 -94.9119 209° Southwest 148 170 2,900  Level Houston Center
07:34PM 29.8381 -94.9356 209° Southwest 150 173 2,900  Level Houston Center
07:35PM 29.8036 -94.9569 208° Southwest 144 166 2,900 -240 Level Houston Center
07:36PM 29.7689 -94.9794 209° Southwest 142 163 2,500 -480 Descending Houston Center
07:37PM 29.7353 -95.0106 219° Southwest 151 174 2,000 -300 Descending Houston Center
07:38PM 29.7067 -95.0406 222° Southwest 146 168 2,000 -60 Level Houston Center
07:39PM 29.6797 -95.0744 228° Southwest 125 144 1,900 -420 Descending Houston Center
07:40PM 29.6583 -95.0975 223° Southwest 113 130 1,200 -540 Descending Houston Center
07:41PM 29.6400 -95.1172 223° Southwest 101 116 800 -480 Descending Houston Center
07:42PM 29.6211 -95.1378 223° Southwest 96 110 300 -540 Descending Houston Center
07:44PM 29.6000 -95.1500 213° Southwest  Level FlightAware Approximate